Time;durP1;ratioP1;P1;durP2;ratioP2;P2;SDS_P1;SDS_P2;PMS_P1;PMS_P2;Temp;Humidity;BMP_temperature;BMP_pressure;BME280_temperature;BME280_humidity;BME280_pressure;Samples;Min_cycle;Max_cycle;Signal;HPM_P1;HPM_P2
2022/03/06 00:00:51;;;;;;;4.47;3.65;;;12.70;38.20;;;;;;5113829;28;20050;-75
2022/03/06 00:03:23;;;;;;;3.75;3.15;;;12.70;38.30;;;;;;5113863;28;20044;-75
2022/03/06 00:05:52;;;;;;;5.07;3.38;;;12.60;38.20;;;;;;5114777;28;20039;-74
2022/03/06 00:08:17;;;;;;;5.18;4.00;;;12.70;38.30;;;;;;5113507;28;20051;-74
2022/03/06 00:10:43;;;;;;;4.28;3.45;;;12.70;38.30;;;;;;5113729;28;20452;-75
2022/03/06 00:13:09;;;;;;;4.43;3.25;;;12.60;38.30;;;;;;5114711;28;20535;-75
2022/03/06 00:15:34;;;;;;;3.90;3.25;;;12.60;38.30;;;;;;5113627;28;20050;-74
2022/03/06 00:18:00;;;;;;;3.05;2.78;;;12.60;38.20;;;;;;5113353;28;20403;-74
2022/03/06 00:20:26;;;;;;;4.03;3.53;;;12.60;38.20;;;;;;5113563;28;20036;-74
2022/03/06 00:22:52;;;;;;;4.45;2.65;;;12.60;38.30;;;;;;5113149;28;20475;-74
2022/03/06 00:25:18;;;;;;;4.00;3.33;;;12.60;38.30;;;;;;5112495;28;20043;-74
2022/03/06 00:27:44;;;;;;;4.40;3.45;;;12.60;38.30;;;;;;5112062;28;20051;-74
2022/03/06 00:30:11;;;;;;;5.28;3.20;;;12.60;38.30;;;;;;5113165;28;20519;-74
2022/03/06 00:32:36;;;;;;;3.25;2.88;;;12.60;38.30;;;;;;5112941;28;20510;-75
2022/03/06 00:35:02;;;;;;;3.60;2.58;;;12.60;38.30;;;;;;5113250;28;20035;-74
2022/03/06 00:37:28;;;;;;;3.78;3.15;;;12.60;38.20;;;;;;5113152;28;20100;-74
2022/03/06 00:39:54;;;;;;;4.15;3.38;;;12.60;38.20;;;;;;5113236;28;20122;-74
2022/03/06 00:42:19;;;;;;;3.53;2.90;;;12.60;38.20;;;;;;5112820;28;20479;-74
2022/03/06 00:44:48;;;;;;;3.92;3.50;;;12.60;38.10;;;;;;5114111;28;20039;-74
2022/03/06 00:47:13;;;;;;;3.17;2.88;;;12.60;38.20;;;;;;5113911;28;20058;-73
2022/03/06 00:49:39;;;;;;;4.72;3.42;;;12.60;38.20;;;;;;5113062;28;20491;-73
2022/03/06 00:52:05;;;;;;;4.97;3.42;;;12.60;38.20;;;;;;5112866;28;20193;-73
2022/03/06 00:54:31;;;;;;;3.40;3.10;;;12.60;38.20;;;;;;5112905;28;20028;-73
2022/03/06 00:56:56;;;;;;;3.60;2.60;;;12.60;38.20;;;;;;5113808;28;20495;-73
2022/03/06 00:59:22;;;;;;;3.47;3.17;;;12.60;38.20;;;;;;5113771;28;20114;-73
2022/03/06 01:01:48;;;;;;;3.90;3.35;;;12.60;38.20;;;;;;5112564;28;20402;-73
2022/03/06 01:04:13;;;;;;;4.70;3.45;;;12.50;38.20;;;;;;5112429;28;20058;-73
2022/03/06 01:06:39;;;;;;;3.67;2.72;;;12.50;38.20;;;;;;5113560;28;20040;-72
2022/03/06 01:09:06;;;;;;;4.07;3.67;;;12.50;38.20;;;;;;5112535;28;20075;-73
2022/03/06 01:11:34;;;;;;;3.17;2.88;;;12.50;38.30;;;;;;5112694;28;20043;-73
2022/03/06 01:14:00;;;;;;;3.33;3.03;;;12.50;38.30;;;;;;5112168;28;20044;-73
2022/03/06 01:16:29;;;;;;;4.22;3.13;;;12.50;39.00;;;;;;5112205;28;20045;-72
2022/03/06 01:18:54;;;;;;;3.38;2.90;;;12.50;38.30;;;;;;5112101;28;20046;-72
2022/03/06 01:21:20;;;;;;;3.47;2.83;;;12.40;38.30;;;;;;5112173;28;20039;-72
2022/03/06 01:23:48;;;;;;;3.53;3.10;;;12.40;38.30;;;;;;5112155;28;20039;-73
2022/03/06 01:26:16;;;;;;;3.88;2.67;;;12.40;38.30;;;;;;5111946;28;20071;-73
2022/03/06 01:28:41;;;;;;;3.65;3.30;;;12.40;38.40;;;;;;5113065;28;20152;-73
2022/03/06 01:31:07;;;;;;;3.25;2.88;;;12.40;38.40;;;;;;5112197;28;20067;-73
2022/03/06 01:33:32;;;;;;;3.17;2.90;;;12.40;38.30;;;;;;5111833;28;20507;-73
2022/03/06 01:35:58;;;;;;;3.42;3.13;;;12.40;38.30;;;;;;5113135;28;20062;-73
2022/03/06 01:38:24;;;;;;;2.88;2.58;;;12.40;38.30;;;;;;5111700;28;20050;-73
2022/03/06 01:40:49;;;;;;;3.67;2.58;;;12.40;38.30;;;;;;5113070;28;20039;-72
2022/03/06 01:43:15;;;;;;;3.10;2.80;;;12.40;38.40;;;;;;5111675;28;20468;-73
2022/03/06 01:45:40;;;;;;;3.55;2.90;;;12.40;38.30;;;;;;5111727;28;20067;-73
2022/03/06 01:48:09;;;;;;;4.22;3.03;;;12.40;38.30;;;;;;5111533;28;20046;-73
2022/03/06 01:50:35;;;;;;;2.47;2.17;;;12.40;38.20;;;;;;5111843;28;20061;-72
2022/03/06 01:53:06;;;;;;;2.90;2.60;;;12.40;38.30;;;;;;5112788;28;20220;-72
2022/03/06 01:55:32;;;;;;;3.40;2.42;;;12.40;38.30;;;;;;5111731;28;20176;-73
2022/03/06 01:58:01;;;;;;;3.03;2.72;;;12.40;38.30;;;;;;5111186;28;20052;-77
2022/03/06 02:00:30;;;;;;;2.80;2.33;;;12.40;38.30;;;;;;5111483;28;20092;-72
2022/03/06 02:02:56;;;;;;;3.53;2.40;;;12.30;38.30;;;;;;5111307;28;20069;-72
2022/03/06 02:05:22;;;;;;;2.55;2.25;;;12.40;38.40;;;;;;5111342;28;20134;-72
2022/03/06 02:07:48;;;;;;;3.15;2.85;;;12.30;38.30;;;;;;5111251;28;20047;-72
2022/03/06 02:10:14;;;;;;;2.88;2.60;;;12.30;38.30;;;;;;5111193;28;20150;-72
2022/03/06 02:12:41;;;;;;;3.65;2.78;;;12.30;38.40;;;;;;5111326;28;20071;-72
2022/03/06 02:15:09;;;;;;;4.90;2.67;;;12.30;38.40;;;;;;5111199;28;20040;-72
2022/03/06 02:17:37;;;;;;;3.97;2.53;;;12.30;38.40;;;;;;5112591;28;20425;-72
2022/03/06 02:20:08;;;;;;;2.47;2.25;;;12.30;38.40;;;;;;5112426;28;20116;-72
2022/03/06 02:22:35;;;;;;;;;;;12.30;38.50;;;;;;5112563;28;20115;-72
2022/03/06 02:25:08;;;;;;;3.10;2.78;;;12.30;38.60;;;;;;5111061;28;19916;-72
2022/03/06 02:27:37;;;;;;;2.70;2.05;;;12.30;38.40;;;;;;5110732;28;20063;-72
2022/03/06 02:30:06;;;;;;;2.97;2.63;;;12.30;38.40;;;;;;5112249;28;20097;-72
2022/03/06 02:32:33;;;;;;;3.13;2.00;;;12.20;38.40;;;;;;5111319;28;20406;-72
2022/03/06 02:34:58;;;;;;;3.35;2.75;;;12.30;38.50;;;;;;5111235;28;20044;-72
2022/03/06 02:37:24;;;;;;;2.75;2.30;;;12.20;38.40;;;;;;5112844;28;20050;-72
2022/03/06 02:39:53;;;;;;;2.42;1.98;;;12.20;38.40;;;;;;5112590;28;20039;-72
2022/03/06 02:42:36;;;;;;;2.90;2.45;;;12.20;38.40;;;;;;5110841;28;20047;-72
2022/03/06 02:45:09;;;;;;;2.95;2.13;;;12.20;38.50;;;;;;5110913;28;20044;-72
2022/03/06 02:47:34;;;;;;;3.55;2.40;;;12.30;38.40;;;;;;5110103;28;20040;-72
2022/03/06 02:50:02;;;;;;;3.97;2.67;;;12.30;38.40;;;;;;5111998;28;20380;-73
2022/03/06 02:52:28;;;;;;;3.05;2.63;;;12.30;38.40;;;;;;5111039;28;20123;-72
2022/03/06 02:54:54;;;;;;;3.17;2.67;;;12.30;38.40;;;;;;5110862;28;20615;-73
2022/03/06 02:57:28;;;;;;;2.63;2.42;;;12.20;38.40;;;;;;5112029;28;20040;-72
2022/03/06 02:59:54;;;;;;;2.75;2.50;;;12.30;38.50;;;;;;5110144;28;20118;-73
2022/03/06 03:02:19;;;;;;;3.05;2.72;;;12.20;38.50;;;;;;5111837;28;20176;-72
2022/03/06 03:04:46;;;;;;;3.90;2.45;;;12.20;38.50;;;;;;5111021;28;20035;-73
2022/03/06 03:07:15;;;;;;;3.40;2.50;;;12.20;38.50;;;;;;5110592;28;20047;-72
2022/03/06 03:09:41;;;;;;;3.30;2.40;;;12.20;38.60;;;;;;5111028;28;20024;-73
2022/03/06 03:12:07;;;;;;;2.67;2.22;;;12.10;38.50;;;;;;5110527;28;20043;-72
2022/03/06 03:14:33;;;;;;;3.30;2.97;;;12.20;38.50;;;;;;5110967;28;20055;-72
2022/03/06 03:17:00;;;;;;;2.55;2.33;;;12.10;38.50;;;;;;5111747;28;20062;-72
2022/03/06 03:19:26;;;;;;;3.40;2.10;;;12.20;38.50;;;;;;5111885;28;20390;-73
2022/03/06 03:21:53;;;;;;;3.08;2.50;;;12.10;38.50;;;;;;5111578;28;20086;-72
2022/03/06 03:24:18;;;;;;;2.45;2.25;;;12.10;38.50;;;;;;5109879;28;20038;-73
2022/03/06 03:26:44;;;;;;;4.03;2.17;;;12.10;38.60;;;;;;5109235;28;20479;-72
2022/03/06 03:29:09;;;;;;;3.05;2.10;;;12.10;38.60;;;;;;5110157;28;20126;-73
2022/03/06 03:31:38;;;;;;;2.75;2.03;;;12.10;38.60;;;;;;5111752;28;20040;-73
2022/03/06 03:34:04;;;;;;;2.90;2.10;;;12.10;38.60;;;;;;5111184;28;20084;-72
2022/03/06 03:36:30;;;;;;;2.67;2.33;;;12.00;38.60;;;;;;5114174;28;20036;-73
2022/03/06 03:38:58;;;;;;;2.40;2.17;;;12.10;38.70;;;;;;5114138;28;20047;-73
2022/03/06 03:41:27;;;;;;;1.90;1.70;;;12.00;38.70;;;;;;5114105;28;20509;-72
2022/03/06 03:43:53;;;;;;;4.05;2.78;;;12.10;38.70;;;;;;5114055;28;20050;-72
2022/03/06 03:46:19;;;;;;;3.53;1.98;;;12.00;38.70;;;;;;5113893;28;20126;-73
2022/03/06 03:48:45;;;;;;;2.45;2.20;;;12.00;38.70;;;;;;5115431;28;20450;-73
2022/03/06 03:51:11;;;;;;;3.13;2.53;;;12.00;38.70;;;;;;5114377;28;20368;-72
2022/03/06 03:53:37;;;;;;;2.45;1.98;;;12.00;38.70;;;;;;5113840;28;20039;-72
2022/03/06 03:56:05;;;;;;;2.08;1.88;;;11.90;38.70;;;;;;5114061;28;20032;-72
2022/03/06 03:58:31;;;;;;;3.38;2.53;;;11.90;38.80;;;;;;5113738;28;20114;-72
2022/03/06 04:00:57;;;;;;;2.92;2.17;;;11.90;38.80;;;;;;5113732;27;20044;-73
2022/03/06 04:03:23;;;;;;;2.92;1.73;;;11.90;38.80;;;;;;5113444;28;20038;-72
2022/03/06 04:05:49;;;;;;;1.63;1.35;;;11.90;38.80;;;;;;5112942;28;20114;-72
2022/03/06 04:08:21;;;;;;;2.25;1.52;;;12.00;38.90;;;;;;5113306;28;20040;-72
2022/03/06 04:10:46;;;;;;;3.10;1.88;;;11.90;38.80;;;;;;5113583;28;20494;-73
2022/03/06 04:13:12;;;;;;;2.22;1.52;;;11.90;38.80;;;;;;5114665;28;20039;-72
2022/03/06 04:15:38;;;;;;;2.95;2.08;;;11.90;38.80;;;;;;5113720;28;20042;-72
2022/03/06 04:18:04;;;;;;;2.40;1.95;;;11.90;38.80;;;;;;5095722;28;20067;-72
2022/03/06 04:20:30;;;;;;;1.67;1.42;;;11.90;38.90;;;;;;5113350;28;20043;-73
2022/03/06 04:22:57;;;;;;;2.97;1.65;;;11.90;38.90;;;;;;5112869;28;20046;-72
2022/03/06 04:25:23;;;;;;;2.50;1.67;;;11.90;38.90;;;;;;5114292;28;20043;-73
2022/03/06 04:27:49;;;;;;;2.22;1.38;;;11.90;38.90;;;;;;5112759;28;20087;-73
2022/03/06 04:30:14;;;;;;;3.90;2.10;;;11.90;38.90;;;;;;5112673;28;20079;-73
2022/03/06 04:32:40;;;;;;;2.58;1.70;;;11.90;38.90;;;;;;5113645;28;20043;-72
2022/03/06 04:35:06;;;;;;;2.47;1.33;;;11.90;38.90;;;;;;5113025;28;20058;-72
2022/03/06 04:37:32;;;;;;;2.90;1.98;;;11.90;38.90;;;;;;5112974;28;20059;-72
2022/03/06 04:39:58;;;;;;;2.00;1.52;;;11.90;38.90;;;;;;5112917;28;20499;-72
2022/03/06 04:42:24;;;;;;;2.63;1.77;;;11.90;38.90;;;;;;5112913;28;20040;-73
2022/03/06 04:44:50;;;;;;;3.53;1.60;;;11.90;39.00;;;;;;5113064;28;20112;-72
2022/03/06 04:47:15;;;;;;;2.00;1.48;;;11.80;38.90;;;;;;5112791;28;20591;-73
2022/03/06 04:49:41;;;;;;;2.47;1.42;;;11.80;39.00;;;;;;5114039;28;20405;-73
2022/03/06 04:52:07;;;;;;;2.00;1.27;;;11.80;38.90;;;;;;5114186;28;20081;-72
2022/03/06 04:54:33;;;;;;;2.13;1.60;;;11.80;38.90;;;;;;5113863;28;20476;-73
2022/03/06 04:57:02;;;;;;;2.22;1.50;;;11.80;38.90;;;;;;5113903;28;20044;-72
2022/03/06 04:59:28;;;;;;;1.80;1.40;;;11.80;39.00;;;;;;5112832;28;20109;-72
2022/03/06 05:01:54;;;;;;;1.63;1.30;;;11.80;39.00;;;;;;5112252;28;20491;-72
2022/03/06 05:04:20;;;;;;;1.98;1.40;;;11.80;38.90;;;;;;5113708;28;20146;-72
2022/03/06 05:06:46;;;;;;;2.85;1.40;;;11.90;38.90;;;;;;5113567;28;20181;-73
2022/03/06 05:09:11;;;;;;;2.35;1.45;;;11.90;38.90;;;;;;5112551;28;20040;-73
2022/03/06 05:11:37;;;;;;;2.03;1.10;;;11.90;38.90;;;;;;5112678;28;20042;-72
2022/03/06 05:14:03;;;;;;;2.15;1.58;;;11.90;38.80;;;;;;5112560;28;20082;-73
2022/03/06 05:16:30;;;;;;;2.75;1.92;;;11.90;38.80;;;;;;5112422;28;20042;-72
2022/03/06 05:18:56;;;;;;;1.52;1.15;;;11.90;38.80;;;;;;5112831;28;20035;-72
2022/03/06 05:21:22;;;;;;;1.90;1.10;;;11.90;38.80;;;;;;5113328;28;20631;-72
2022/03/06 05:23:47;;;;;;;1.73;1.23;;;11.90;38.80;;;;;;5112106;28;20065;-73
2022/03/06 05:26:13;;;;;;;2.35;1.60;;;11.90;38.70;;;;;;5111973;28;20058;-73
2022/03/06 05:28:41;;;;;;;2.30;1.10;;;11.90;38.80;;;;;;5110756;28;20052;-73
2022/03/06 05:31:07;;;;;;;2.03;1.13;;;11.90;38.80;;;;;;5111642;28;20051;-73
2022/03/06 05:33:33;;;;;;;2.03;1.55;;;11.90;38.80;;;;;;5112148;28;20046;-73
2022/03/06 05:35:59;;;;;;;2.67;1.23;;;11.90;38.90;;;;;;5113039;28;20360;-73
2022/03/06 05:38:24;;;;;;;2.15;0.98;;;11.80;38.90;;;;;;5112117;28;20432;-72
2022/03/06 05:40:50;;;;;;;1.65;1.02;;;11.80;38.90;;;;;;5111780;28;20510;-72
2022/03/06 05:43:15;;;;;;;1.85;1.25;;;11.80;38.90;;;;;;5111945;28;20085;-72
2022/03/06 05:45:41;;;;;;;1.52;1.20;;;11.80;39.00;;;;;;5111408;28;20050;-73
2022/03/06 05:48:07;;;;;;;1.40;1.15;;;11.80;39.00;;;;;;5112544;28;20471;-72
2022/03/06 05:50:32;;;;;;;1.50;1.00;;;11.80;39.10;;;;;;5112794;28;20035;-72
2022/03/06 05:53:04;;;;;;;2.17;1.13;;;11.70;39.00;;;;;;5111543;28;20050;-73
2022/03/06 05:55:30;;;;;;;1.58;1.10;;;11.70;39.10;;;;;;5112892;28;20038;-72
2022/03/06 05:57:56;;;;;;;1.85;1.05;;;11.70;39.10;;;;;;5111258;28;20075;-72
2022/03/06 06:00:22;;;;;;;1.83;1.20;;;11.70;39.10;;;;;;5111407;28;20551;-72
2022/03/06 06:02:49;;;;;;;2.30;0.85;;;11.70;39.10;;;;;;5111967;28;20127;-72
2022/03/06 06:05:15;;;;;;;2.00;1.08;;;11.70;39.10;;;;;;5111795;28;20098;-72
2022/03/06 06:07:41;;;;;;;1.40;0.80;;;11.70;39.10;;;;;;5111255;28;20718;-72
2022/03/06 06:10:07;;;;;;;1.60;1.15;;;11.70;39.10;;;;;;5112537;28;20035;-72
2022/03/06 06:12:36;;;;;;;2.25;0.77;;;11.70;39.10;;;;;;5111547;28;20078;-72
2022/03/06 06:15:02;;;;;;;1.95;1.00;;;11.70;39.20;;;;;;5112504;28;20480;-72
2022/03/06 06:17:27;;;;;;;1.23;0.93;;;11.60;39.10;;;;;;5112383;28;20056;-72
2022/03/06 06:19:53;;;;;;;1.45;0.80;;;11.60;39.10;;;;;;5112457;28;20731;-71
2022/03/06 06:22:19;;;;;;;1.38;0.60;;;11.60;39.10;;;;;;5111456;28;20453;-72
2022/03/06 06:24:44;;;;;;;2.10;0.98;;;11.60;39.20;;;;;;5111108;28;20108;-71
2022/03/06 06:27:10;;;;;;;2.78;0.93;;;11.60;39.10;;;;;;5112068;28;20032;-72
2022/03/06 06:29:36;;;;;;;1.77;1.05;;;11.70;39.20;;;;;;5111263;28;20042;-72
2022/03/06 06:32:03;;;;;;;2.55;0.93;;;11.60;39.10;;;;;;5110970;28;20402;-72
2022/03/06 06:34:28;;;;;;;2.30;1.00;;;11.70;39.20;;;;;;5110832;28;20061;-72
2022/03/06 06:36:58;;;;;;;2.00;0.88;;;11.60;39.20;;;;;;5111052;28;20043;-72
2022/03/06 06:39:25;;;;;;;2.00;1.23;;;11.60;39.20;;;;;;5110938;28;20047;-72
2022/03/06 06:41:51;;;;;;;2.90;1.45;;;11.60;39.20;;;;;;5110921;28;20051;-72
2022/03/06 06:44:17;;;;;;;1.33;0.98;;;11.60;39.20;;;;;;5112218;28;20028;-71
2022/03/06 06:46:43;;;;;;;1.83;1.00;;;11.60;39.20;;;;;;5110389;28;20543;-72
2022/03/06 06:49:10;;;;;;;1.83;0.73;;;11.60;39.20;;;;;;5110644;28;20403;-73
2022/03/06 06:51:38;;;;;;;1.52;0.88;;;11.70;39.20;;;;;;5110896;28;20043;-72
2022/03/06 06:54:04;;;;;;;2.20;0.70;;;11.70;39.10;;;;;;5110768;28;20044;-73
2022/03/06 06:56:32;;;;;;;2.50;0.60;;;11.70;39.10;;;;;;5111143;28;20059;-72
2022/03/06 06:58:58;;;;;;;1.27;0.90;;;11.70;39.10;;;;;;5110742;28;20503;-72
2022/03/06 07:01:24;;;;;;;2.25;0.90;;;11.70;39.10;;;;;;5109578;28;20204;-72
2022/03/06 07:03:50;;;;;;;2.20;0.88;;;11.70;39.00;;;;;;5110793;28;20039;-72
2022/03/06 07:06:15;;;;;;;1.80;0.70;;;11.70;39.00;;;;;;5111211;28;20032;-72
2022/03/06 07:08:42;;;;;;;1.88;0.77;;;11.70;38.90;;;;;;5112440;28;20043;-72
2022/03/06 07:11:08;;;;;;;2.30;0.98;;;11.70;38.90;;;;;;5114607;28;20040;-73
2022/03/06 07:13:33;;;;;;;2.38;0.80;;;11.70;38.90;;;;;;5116062;28;20046;-72
2022/03/06 07:16:02;;;;;;;1.75;0.40;;;11.80;38.90;;;;;;5115836;28;20114;-72
2022/03/06 07:18:28;;;;;;;2.13;1.20;;;11.80;38.90;;;;;;5114563;28;20071;-72
2022/03/06 07:20:53;;;;;;;2.72;0.60;;;11.80;38.90;;;;;;5114463;28;20075;-72
2022/03/06 07:23:19;;;;;;;2.47;0.60;;;11.80;38.90;;;;;;5114722;28;20048;-72
2022/03/06 07:25:45;;;;;;;0.93;0.40;;;11.80;38.80;;;;;;5115655;28;20433;-72
2022/03/06 07:28:11;;;;;;;1.42;0.70;;;11.80;38.80;;;;;;5114147;28;20054;-72
2022/03/06 07:30:39;;;;;;;3.20;0.73;;;11.80;38.70;;;;;;5115511;28;20139;-73
2022/03/06 07:33:05;;;;;;;1.45;0.65;;;11.90;38.80;;;;;;5114191;28;20040;-72
2022/03/06 07:35:31;;;;;;;2.88;0.50;;;11.90;38.70;;;;;;5114467;28;20108;-72
2022/03/06 07:37:58;;;;;;;2.03;0.80;;;11.80;39.50;;;;;;5114292;28;20123;-72
2022/03/06 07:40:24;;;;;;;1.25;0.50;;;11.80;38.70;;;;;;5114336;28;20039;-72
2022/03/06 07:42:50;;;;;;;1.10;0.60;;;11.90;38.60;;;;;;5114091;28;20039;-72
2022/03/06 07:45:17;;;;;;;1.13;0.45;;;11.90;38.60;;;;;;5115327;28;20046;-72
2022/03/06 07:47:42;;;;;;;1.50;0.60;;;11.90;38.60;;;;;;5113935;28;20128;-72
2022/03/06 07:50:13;;;;;;;1.83;0.63;;;11.90;38.60;;;;;;5115169;28;20067;-72
2022/03/06 07:52:39;;;;;;;1.20;0.50;;;11.90;38.60;;;;;;5114083;28;20043;-72
2022/03/06 07:55:06;;;;;;;1.10;0.60;;;11.90;38.60;;;;;;5113865;28;20039;-72
2022/03/06 07:57:32;;;;;;;1.50;0.70;;;11.90;38.60;;;;;;5115113;28;20050;-72
2022/03/06 07:59:58;;;;;;;1.42;0.50;;;11.90;38.50;;;;;;5114030;28;20395;-72
2022/03/06 08:02:23;;;;;;;0.85;0.50;;;11.90;38.60;;;;;;5113908;28;20047;-71
2022/03/06 08:04:52;;;;;;;1.52;0.70;;;11.90;38.60;;;;;;5113585;28;20050;-72
2022/03/06 08:07:18;;;;;;;1.65;0.70;;;11.90;38.60;;;;;;5113534;28;20036;-72
2022/03/06 08:09:43;;;;;;;1.45;0.60;;;11.90;38.70;;;;;;5113639;28;20047;-72
2022/03/06 08:12:09;;;;;;;2.35;0.40;;;11.90;38.70;;;;;;5113490;28;20118;-72
2022/03/06 08:14:38;;;;;;;1.92;0.50;;;11.90;38.70;;;;;;5114753;28;20038;-72
2022/03/06 08:17:04;;;;;;;1.20;0.60;;;11.90;38.80;;;;;;5112666;28;20101;-72
2022/03/06 08:19:29;;;;;;;2.13;0.50;;;11.90;38.80;;;;;;5112854;28;20047;-72
2022/03/06 08:21:55;;;;;;;0.75;0.30;;;11.90;38.80;;;;;;5113491;28;20100;-72
2022/03/06 08:24:23;;;;;;;0.77;0.50;;;11.90;38.70;;;;;;5113557;28;20368;-72
2022/03/06 08:26:49;;;;;;;2.00;0.40;;;11.90;38.70;;;;;;5113381;28;20141;-72
2022/03/06 08:29:15;;;;;;;1.15;0.22;;;11.90;38.70;;;;;;5112813;28;20485;-72
2022/03/06 08:31:40;;;;;;;2.95;0.65;;;11.90;38.70;;;;;;5114279;28;20042;-72
2022/03/06 08:34:06;;;;;;;1.88;0.63;;;11.90;38.70;;;;;;5112991;28;20040;-72
2022/03/06 08:36:32;;;;;;;0.90;0.43;;;11.90;38.70;;;;;;5113129;28;20097;-72
2022/03/06 08:39:00;;;;;;;1.23;0.30;;;11.90;38.70;;;;;;5112979;28;20090;-72
2022/03/06 08:41:26;;;;;;;1.55;0.40;;;11.90;38.60;;;;;;5113206;28;20095;-72
2022/03/06 08:43:51;;;;;;;0.95;0.40;;;11.90;38.60;;;;;;5112931;28;20429;-72
2022/03/06 08:46:23;;;;;;;2.17;0.55;;;11.90;38.60;;;;;;5114163;28;20096;-73
2022/03/06 08:48:48;;;;;;;1.67;0.47;;;11.90;38.60;;;;;;5112229;28;20035;-72
2022/03/06 08:51:14;;;;;;;1.00;0.38;;;11.90;38.60;;;;;;5112499;28;20398;-72
2022/03/06 08:53:46;;;;;;;0.73;0.22;;;11.90;38.60;;;;;;5114147;28;20081;-72
2022/03/06 08:56:11;;;;;;;1.95;0.30;;;12.00;38.60;;;;;;5112960;28;20080;-72
2022/03/06 08:58:37;;;;;;;1.20;0.40;;;11.90;38.50;;;;;;5112607;28;20123;-72
2022/03/06 09:01:03;;;;;;;1.30;0.30;;;12.00;38.60;;;;;;5112542;28;20118;-72
2022/03/06 09:03:29;;;;;;;1.23;0.50;;;12.00;38.50;;;;;;5112417;28;20046;-73
2022/03/06 09:05:54;;;;;;;0.60;0.30;;;12.00;38.50;;;;;;5112419;28;20506;-72
2022/03/06 09:08:20;;;;;;;1.48;0.38;;;12.00;39.30;;;;;;5113602;28;20131;-72
2022/03/06 09:10:46;;;;;;;1.45;0.30;;;11.90;38.50;;;;;;5112664;28;20049;-71
2022/03/06 09:13:11;;;;;;;2.08;0.40;;;11.90;38.50;;;;;;5112306;28;20551;-72
2022/03/06 09:15:37;;;;;;;1.17;0.30;;;11.90;38.50;;;;;;5112641;28;20122;-72
2022/03/06 09:18:04;;;;;;;2.30;0.45;;;11.90;38.50;;;;;;5111731;28;20032;-72
2022/03/06 09:20:29;;;;;;;0.70;0.40;;;11.90;38.50;;;;;;5111482;28;20044;-72
2022/03/06 09:22:55;;;;;;;0.70;0.30;;;11.90;38.40;;;;;;5113312;28;20463;-72
2022/03/06 09:25:21;;;;;;;1.08;0.30;;;11.90;38.40;;;;;;5112323;28;20097;-72
2022/03/06 09:27:47;;;;;;;1.13;0.40;;;11.90;38.30;;;;;;5112278;28;20526;-71
2022/03/06 09:30:13;;;;;;;1.15;0.47;;;11.90;38.30;;;;;;5111755;28;20040;-72
2022/03/06 09:32:39;;;;;;;2.15;0.30;;;11.90;38.30;;;;;;5111306;28;20051;-72
2022/03/06 09:35:06;;;;;;;2.47;0.40;;;12.00;38.30;;;;;;5111703;28;20043;-71
2022/03/06 09:37:33;;;;;;;1.40;0.30;;;12.00;38.30;;;;;;5111188;28;20088;-71
2022/03/06 09:39:59;;;;;;;1.08;0.30;;;12.00;38.30;;;;;;5113400;28;20126;-72
2022/03/06 09:42:25;;;;;;;0.77;0.30;;;12.00;38.20;;;;;;5113057;28;20418;-71
2022/03/06 09:44:51;;;;;;;2.67;0.30;;;12.00;38.20;;;;;;5111740;28;20035;-71
2022/03/06 09:47:16;;;;;;;0.60;0.20;;;12.00;38.20;;;;;;5094634;28;20067;-71
2022/03/06 09:49:44;;;;;;;0.98;0.32;;;12.00;38.20;;;;;;5112820;28;20042;-72
2022/03/06 09:52:10;;;;;;;1.27;0.30;;;12.00;38.20;;;;;;5113078;28;20495;-71
2022/03/06 09:54:36;;;;;;;0.98;0.32;;;12.00;38.10;;;;;;5111469;28;20031;-71
2022/03/06 09:57:02;;;;;;;0.90;0.20;;;12.00;38.10;;;;;;5111793;28;20051;-71
2022/03/06 09:59:30;;;;;;;0.77;0.30;;;12.00;38.10;;;;;;5111731;28;20502;-71
2022/03/06 10:02:01;;;;;;;1.45;0.20;;;12.00;38.20;;;;;;5111117;28;20218;-71
2022/03/06 10:04:29;;;;;;;0.77;0.30;;;12.00;38.10;;;;;;5112571;28;20558;-72
2022/03/06 10:07:12;;;;;;;0.40;0.20;;;11.90;38.10;;;;;;5112731;28;20040;-72
2022/03/06 10:09:55;;;;;;;1.27;0.52;;;11.90;38.10;;;;;;5112665;28;20080;-71
2022/03/06 10:12:23;;;;;;;1.05;0.30;;;12.00;38.20;;;;;;5112628;28;20429;-71
2022/03/06 10:14:51;;;;;;;1.75;0.20;;;11.90;38.10;;;;;;5111325;28;20032;-71
2022/03/06 10:17:19;;;;;;;1.30;0.20;;;11.90;38.10;;;;;;5111450;28;20047;-72
2022/03/06 10:25:08;;;;;;;1.23;0.30;;;11.90;38.10;;;;;;5049006;27;4064605;-71
2022/03/06 10:27:44;;;;;;;1.30;0.30;;;12.00;38.00;;;;;;5153048;27;20076;-72
2022/03/06 10:30:31;;;;;;;1.17;0.35;;;12.00;38.00;;;;;;5153127;27;20038;-71
2022/03/06 10:32:59;;;;;;;1.30;0.25;;;12.00;37.90;;;;;;5152913;27;20470;-72
2022/03/06 10:35:32;;;;;;;1.38;0.20;;;12.10;37.90;;;;;;5152977;27;20089;-71
2022/03/06 10:37:58;;;;;;;0.80;0.20;;;12.10;38.60;;;;;;5152805;27;20045;-71
2022/03/06 10:40:34;;;;;;;0.43;0.17;;;12.20;37.70;;;;;;5153263;27;20501;-71
2022/03/06 10:43:00;;;;;;;0.93;0.30;;;12.20;37.60;;;;;;5152786;27;20077;-71
2022/03/06 10:45:26;;;;;;;0.90;0.20;;;12.20;37.50;;;;;;5152433;27;20071;-71
2022/03/06 10:47:52;;;;;;;1.17;0.30;;;12.30;37.40;;;;;;5152432;27;20465;-71
2022/03/06 10:50:24;;;;;;;1.42;0.20;;;12.30;37.30;;;;;;5171483;27;20046;-71
2022/03/06 10:52:53;;;;;;;0.68;0.20;;;12.30;37.20;;;;;;5171286;27;20050;-71
2022/03/06 10:55:32;;;;;;;0.82;0.20;;;12.30;37.10;;;;;;5171471;27;20039;-71
2022/03/06 10:57:58;;;;;;;2.08;0.30;;;12.40;37.10;;;;;;5152750;27;20295;-71
2022/03/06 11:00:24;;;;;;;0.77;0.30;;;12.40;37.00;;;;;;5169993;27;20157;-72
2022/03/06 11:02:51;;;;;;;0.85;0.20;;;12.40;36.90;;;;;;5152326;27;20117;-72
2022/03/06 11:05:17;;;;;;;0.70;0.20;;;12.40;36.90;;;;;;5152391;27;20534;-73
2022/03/06 11:07:43;;;;;;;1.20;0.20;;;12.50;36.80;;;;;;5148209;27;20034;-73
2022/03/06 11:10:09;;;;;;;0.88;0.20;;;12.50;36.70;;;;;;5149900;27;20068;-73
2022/03/06 11:12:36;;;;;;;0.93;0.20;;;12.50;36.70;;;;;;5150122;27;20122;-72
2022/03/06 11:15:06;;;;;;;1.27;0.35;;;12.50;36.70;;;;;;5131524;27;20050;-73
2022/03/06 11:17:34;;;;;;;1.13;0.20;;;12.50;36.70;;;;;;5150001;27;20047;-73
2022/03/06 11:20:00;;;;;;;1.20;0.30;;;12.50;36.60;;;;;;5131589;27;20619;-73
2022/03/06 11:22:35;;;;;;;1.08;0.20;;;12.50;36.60;;;;;;5149834;27;20113;-73
2022/03/06 11:25:08;;;;;;;0.82;0.20;;;12.50;36.50;;;;;;5149716;27;20046;-73
2022/03/06 11:27:44;;;;;;;0.57;0.20;;;12.50;36.50;;;;;;5149837;27;20042;-72
2022/03/06 11:30:20;;;;;;;0.60;0.20;;;12.50;36.50;;;;;;5149851;27;20038;-73
2022/03/06 11:32:58;;;;;;;1.25;0.20;;;12.50;36.50;;;;;;5131116;27;20035;-73
2022/03/06 11:35:32;;;;;;;0.80;0.20;;;12.50;36.50;;;;;;5123535;27;20047;-73
2022/03/06 11:37:58;;;;;;;0.65;0.17;;;12.50;36.50;;;;;;5117380;27;20487;-73
2022/03/06 11:43:38;;;;;;;0.45;0.10;;;12.50;36.50;;;;;;5130204;27;20383;-71
2022/03/06 11:46:09;;;;;;;0.60;0.10;;;12.40;36.50;;;;;;5129082;28;20131;-71
2022/03/06 11:56:49;;;;;;;0.40;0.10;;;12.40;36.60;;;;;;5130699;27;20468;-71
2022/03/06 12:02:03;;;;;;;0.50;0.20;;;12.40;36.50;;;;;;5130242;27;20723;-71
2022/03/06 12:04:32;;;;;;;1.08;0.10;;;12.40;36.50;;;;;;5146531;27;20138;-71
2022/03/06 12:09:41;;;;;;;2.05;0.30;;;12.40;36.50;;;;;;5152610;27;1169755;-71
2022/03/06 12:12:22;;;;;;;1.48;0.20;;;12.40;36.40;;;;;;5171827;27;20046;-71
2022/03/06 12:14:57;;;;;;;1.85;0.10;;;12.40;36.40;;;;;;5153244;27;20090;-71
2022/03/06 12:17:28;;;;;;;1.52;0.35;;;12.40;36.40;;;;;;5152958;27;20047;-71
2022/03/06 12:22:42;;;;;;;1.17;0.20;;;12.50;36.40;;;;;;5171811;27;19918;-71
2022/03/06 12:30:43;;;;;;;0.50;0.20;;;12.50;36.40;;;;;;5130337;27;20408;-70
2022/03/06 12:38:57;;;;;;;0.68;0.30;;;12.50;36.30;;;;;;5130353;27;20414;-71
2022/03/06 12:41:23;;;;;;;1.65;0.20;;;12.40;36.30;;;;;;5128933;28;20100;-71
2022/03/06 12:43:57;;;;;;;1.10;0.20;;;12.50;36.30;;;;;;5129282;28;20088;-71
2022/03/06 12:46:23;;;;;;;0.60;0.10;;;12.50;36.20;;;;;;5128464;28;20592;-71
2022/03/06 12:48:49;;;;;;;0.80;0.20;;;12.50;36.30;;;;;;5129045;28;20023;-71
2022/03/06 12:51:33;;;;;;;0.60;0.15;;;12.50;36.20;;;;;;5129237;28;20043;-70
2022/03/06 12:53:59;;;;;;;0.55;0.15;;;12.60;36.30;;;;;;5129527;28;20119;-71
2022/03/06 12:56:31;;;;;;;0.45;0.20;;;12.50;36.30;;;;;;5129870;27;20595;-71
2022/03/06 12:59:07;;;;;;;0.60;0.10;;;12.50;36.20;;;;;;5128951;28;20039;-71
2022/03/06 13:01:35;;;;;;;0.60;0.20;;;12.60;36.30;;;;;;5129831;27;20031;-71
2022/03/06 13:04:02;;;;;;;1.20;0.17;;;12.60;36.30;;;;;;5129964;27;20036;-70
2022/03/06 13:06:28;;;;;;;0.70;0.20;;;12.60;36.30;;;;;;5128446;28;20114;-71
2022/03/06 13:08:54;;;;;;;0.70;0.10;;;12.60;36.20;;;;;;5128821;28;20044;-71
2022/03/06 13:11:22;;;;;;;0.70;0.10;;;12.60;36.20;;;;;;5129626;28;20031;-71
2022/03/06 13:13:57;;;;;;;0.65;0.17;;;12.60;36.20;;;;;;5129813;28;20044;-70
2022/03/06 13:16:25;;;;;;;0.63;0.20;;;12.70;36.20;;;;;;5128784;27;20386;-71
2022/03/06 13:18:57;;;;;;;0.57;0.10;;;12.70;36.10;;;;;;5127476;28;20035;-71
2022/03/06 13:21:24;;;;;;;1.65;0.20;;;12.70;36.10;;;;;;5128030;28;20667;-71
2022/03/06 13:24:00;;;;;;;1.23;0.10;;;12.70;36.20;;;;;;5129472;27;20047;-71